createdAt,value
2022-10-13T00:00:26.047Z,97.24
2022-10-13T00:01:26.088Z,97.08
2022-10-13T00:02:26.019Z,97.14
2022-10-13T00:03:25.999Z,97.04
2022-10-13T00:04:26.001Z,97.14
2022-10-13T00:05:25.991Z,97.04
2022-10-13T00:06:25.991Z,97.14
2022-10-13T00:07:25.963Z,97.14
2022-10-13T00:08:25.952Z,97.14
2022-10-13T00:09:25.931Z,97.14
2022-10-13T00:10:25.950Z,97.14
2022-10-13T00:11:25.923Z,97.04
2022-10-13T00:12:25.902Z,97.14
2022-10-13T00:13:25.891Z,97.04
2022-10-13T00:14:25.894Z,96.94
2022-10-13T00:15:25.887Z,96.94
2022-10-13T00:16:25.907Z,96.94
2022-10-13T00:17:25.852Z,96.94
2022-10-13T00:18:25.832Z,96.94
2022-10-13T00:19:25.824Z,96.83
2022-10-13T00:20:25.813Z,96.94
2022-10-13T00:21:25.812Z,96.83
2022-10-13T00:22:25.818Z,96.83
2022-10-13T00:23:25.786Z,96.94
2022-10-13T00:24:25.775Z,96.94
2022-10-13T00:25:25.764Z,96.83
2022-10-13T00:26:25.766Z,96.73
2022-10-13T00:27:25.733Z,96.83
2022-10-13T00:28:25.737Z,96.83
2022-10-13T00:29:25.714Z,96.94
2022-10-13T00:30:25.697Z,96.94
2022-10-13T00:31:25.705Z,96.94
2022-10-13T00:32:25.686Z,96.94
2022-10-13T00:33:25.680Z,96.99
2022-10-13T00:34:25.655Z,96.79
2022-10-13T00:35:25.657Z,96.69
2022-10-13T00:36:25.636Z,96.79
2022-10-13T00:37:25.629Z,96.89
2022-10-13T00:38:25.675Z,96.79
2022-10-13T00:39:25.609Z,96.58
2022-10-13T00:40:25.616Z,96.58
2022-10-13T00:41:25.587Z,96.69
2022-10-13T00:42:25.567Z,96.69
2022-10-13T00:43:25.567Z,96.58
2022-10-13T00:44:25.598Z,96.48
2022-10-13T00:45:25.546Z,96.48
2022-10-13T00:46:25.526Z,96.69
2022-10-13T00:47:25.545Z,96.58
2022-10-13T00:48:25.508Z,96.58
2022-10-13T00:49:25.503Z,96.69
2022-10-13T00:50:25.498Z,96.58
2022-10-13T00:51:25.479Z,96.48
2022-10-13T00:52:25.458Z,96.48
2022-10-13T00:53:25.449Z,96.69
2022-10-13T00:54:25.439Z,96.58
2022-10-13T00:55:25.442Z,96.48
2022-10-13T00:56:25.439Z,96.58
2022-10-13T00:57:25.410Z,96.79
2022-10-13T00:58:25.398Z,96.58
2022-10-13T00:59:25.381Z,96.48
2022-10-13T01:00:25.374Z,96.69
2022-10-13T01:01:25.367Z,96.89
2022-10-13T01:02:25.351Z,96.89
2022-10-13T01:03:25.342Z,96.89
2022-10-13T01:04:25.334Z,96.79
2022-10-13T01:05:25.372Z,96.69
2022-10-13T01:06:25.315Z,96.58
2022-10-13T01:07:25.299Z,96.69
2022-10-13T01:08:25.281Z,96.79
2022-10-13T01:09:25.274Z,96.79
2022-10-13T01:10:25.282Z,96.89
2022-10-13T01:11:25.252Z,96.89
2022-10-13T01:12:25.232Z,96.89
2022-10-13T01:13:25.234Z,96.79
2022-10-13T01:14:25.214Z,96.69
2022-10-13T01:15:25.214Z,96.99
2022-10-13T01:16:25.193Z,97.20
2022-10-13T01:17:25.186Z,97.30
2022-10-13T01:18:25.169Z,97.30
2022-10-13T01:19:25.165Z,97.36
2022-10-13T01:20:25.163Z,97.25
2022-10-13T01:21:25.144Z,97.46
2022-10-13T01:22:25.125Z,97.46
2022-10-13T01:23:25.906Z,97.66
2022-10-13T01:24:25.104Z,97.56
2022-10-13T01:25:25.118Z,97.77
2022-10-13T01:26:25.084Z,97.77
2022-10-13T01:27:25.075Z,97.66
2022-10-13T01:28:25.114Z,97.56
2022-10-13T01:29:25.056Z,97.56
2022-10-13T01:30:25.055Z,97.77
2022-10-13T01:31:25.054Z,97.66
2022-10-13T01:32:25.225Z,97.66
2022-10-13T01:33:25.004Z,97.77
2022-10-13T01:34:25.125Z,97.87
2022-10-13T01:35:25.005Z,97.77
2022-10-13T01:36:24.966Z,97.66
2022-10-13T01:37:24.966Z,97.56
2022-10-13T01:38:24.948Z,97.66
2022-10-13T01:39:24.937Z,97.56
2022-10-13T01:40:24.937Z,97.56
2022-10-13T01:41:24.918Z,97.56
2022-10-13T01:42:24.977Z,97.56
2022-10-13T01:43:24.897Z,97.66
2022-10-13T01:44:24.879Z,97.56
2022-10-13T01:45:24.877Z,97.56
2022-10-13T01:46:24.857Z,97.66
2022-10-13T01:47:24.860Z,97.66
2022-10-13T01:48:24.829Z,97.46
2022-10-13T01:49:24.846Z,97.46
2022-10-13T01:50:24.830Z,97.46
2022-10-13T01:51:24.812Z,97.56
2022-10-13T01:52:24.788Z,97.36
2022-10-13T01:53:24.787Z,97.56
2022-10-13T01:54:24.781Z,97.66
2022-10-13T01:55:24.778Z,97.66
2022-10-13T01:56:24.769Z,97.77
2022-10-13T01:57:24.740Z,97.87
2022-10-13T01:58:24.730Z,97.87
2022-10-13T01:59:24.724Z,97.87
2022-10-13T02:00:24.748Z,97.87
2022-10-13T02:01:24.705Z,97.87
2022-10-13T02:02:24.680Z,97.87
2022-10-13T02:03:24.674Z,97.97
2022-10-13T02:04:24.653Z,97.87
2022-10-13T02:05:24.661Z,97.87
2022-10-13T02:06:24.632Z,97.66
2022-10-13T02:07:24.641Z,97.66
2022-10-13T02:08:24.612Z,97.66
2022-10-13T02:09:24.609Z,97.56
2022-10-13T02:10:24.607Z,97.66
2022-10-13T02:11:24.591Z,97.56
2022-10-13T02:12:24.584Z,97.66
2022-10-13T02:13:24.570Z,97.50
2022-10-13T02:14:24.565Z,97.50
2022-10-13T02:15:24.543Z,97.50
2022-10-13T02:16:24.529Z,97.50
2022-10-13T02:17:24.523Z,97.61
2022-10-13T02:18:24.515Z,97.40
2022-10-13T02:19:24.504Z,97.50
2022-10-13T02:20:24.496Z,97.40
2022-10-13T02:21:24.473Z,97.61
2022-10-13T02:22:24.464Z,97.61
2022-10-13T02:23:24.462Z,97.61
2022-10-13T02:24:24.436Z,97.71
2022-10-13T02:25:24.456Z,97.61
2022-10-13T02:26:24.426Z,97.61
2022-10-13T02:27:24.423Z,97.50
2022-10-13T02:28:24.430Z,97.61
2022-10-13T02:29:24.396Z,97.40
2022-10-13T02:30:24.388Z,97.40
2022-10-13T02:31:24.376Z,97.50
2022-10-13T02:32:24.356Z,97.61
2022-10-13T02:33:24.346Z,97.61
2022-10-13T02:34:24.411Z,97.61
2022-10-13T02:35:24.337Z,97.71
2022-10-13T02:36:24.306Z,97.71
2022-10-13T02:37:24.319Z,97.71
2022-10-13T02:38:24.297Z,97.71
2022-10-13T02:39:24.288Z,97.71
2022-10-13T02:40:24.289Z,97.50
2022-10-13T02:41:24.266Z,97.71
2022-10-13T02:42:24.357Z,97.71
2022-10-13T02:43:24.246Z,97.91
2022-10-13T02:44:24.242Z,98.02
2022-10-13T02:45:24.398Z,97.91
2022-10-13T02:46:24.214Z,97.91
2022-10-13T02:47:24.199Z,97.91
2022-10-13T02:48:24.190Z,97.91
2022-10-13T02:49:24.185Z,97.71
2022-10-13T02:50:24.160Z,97.71
2022-10-13T02:51:24.159Z,97.71
2022-10-13T02:52:24.150Z,97.71
2022-10-13T02:53:24.141Z,97.50
2022-10-13T02:54:24.119Z,97.61
2022-10-13T02:55:24.133Z,97.56
2022-10-13T02:56:24.100Z,97.46
2022-10-13T02:57:24.090Z,97.46
2022-10-13T02:58:24.081Z,97.56
2022-10-13T02:59:24.081Z,97.46
2022-10-13T03:00:24.069Z,97.56
2022-10-13T03:01:24.050Z,97.46
2022-10-13T03:02:24.201Z,97.36
2022-10-13T03:03:24.022Z,97.36
2022-10-13T03:04:24.020Z,97.25
2022-10-13T03:05:24.022Z,97.15
2022-10-13T03:06:23.993Z,96.95
2022-10-13T03:07:24.002Z,96.95
2022-10-13T03:08:23.971Z,96.95
2022-10-13T03:09:23.965Z,96.95
2022-10-13T03:10:23.962Z,96.95
2022-10-13T03:11:23.944Z,96.95
2022-10-13T03:12:23.937Z,96.95
2022-10-13T03:13:23.924Z,96.89
2022-10-13T03:14:23.907Z,96.89
2022-10-13T03:15:23.915Z,96.99
2022-10-13T03:16:23.905Z,97.09
2022-10-13T03:17:23.876Z,97.09
2022-10-13T03:18:23.862Z,97.09
2022-10-13T03:19:23.858Z,97.20
2022-10-13T03:20:23.844Z,97.40
2022-10-13T03:21:23.845Z,97.50
2022-10-13T03:22:23.821Z,97.50
2022-10-13T03:23:23.814Z,97.61
2022-10-13T03:24:23.807Z,97.71
2022-10-13T03:25:23.796Z,97.71
2022-10-13T03:26:23.789Z,97.81
2022-10-13T03:27:23.767Z,97.71
2022-10-13T03:28:23.817Z,97.61
2022-10-13T03:29:23.747Z,97.50
2022-10-13T03:30:23.752Z,97.50
2022-10-13T03:31:23.738Z,97.71
2022-10-13T03:32:23.727Z,97.50
2022-10-13T03:33:23.696Z,97.61
2022-10-13T03:34:23.699Z,97.71
2022-10-13T03:35:23.678Z,97.71
2022-10-13T03:36:23.678Z,97.81
2022-10-13T03:37:23.687Z,97.91
2022-10-13T03:38:23.662Z,97.87
2022-10-13T03:39:23.647Z,97.87
2022-10-13T03:40:23.629Z,97.91
2022-10-13T03:41:23.637Z,97.81
2022-10-13T03:42:23.608Z,97.91
2022-10-13T03:43:23.667Z,97.87
2022-10-13T03:44:23.580Z,97.81
2022-10-13T03:45:23.578Z,97.66
2022-10-13T03:46:23.581Z,97.71
2022-10-13T03:47:23.562Z,97.71
2022-10-13T03:48:23.541Z,97.71
2022-10-13T03:49:23.559Z,97.81
2022-10-13T03:50:23.598Z,97.71
2022-10-13T03:51:23.520Z,97.71
2022-10-13T03:52:23.514Z,97.66
2022-10-13T03:53:23.502Z,97.71
2022-10-13T03:54:23.486Z,97.66
2022-10-13T03:55:23.471Z,97.56
2022-10-13T03:56:23.473Z,97.46
2022-10-13T03:57:23.459Z,97.46
2022-10-13T03:58:23.441Z,97.36
2022-10-13T03:59:23.666Z,97.36
2022-10-13T04:00:23.419Z,97.36
2022-10-13T04:01:23.483Z,97.50
2022-10-13T04:02:23.408Z,97.50
2022-10-13T04:03:23.382Z,97.50
2022-10-13T04:04:23.383Z,97.50
2022-10-13T04:05:23.392Z,97.40
2022-10-13T04:06:23.354Z,97.20
2022-10-13T04:07:23.545Z,97.30
2022-10-13T04:08:23.323Z,97.20
2022-10-13T04:09:23.434Z,97.20
2022-10-13T04:10:23.305Z,97.15
2022-10-13T04:11:23.315Z,97.20
2022-10-13T04:12:23.814Z,97.20
2022-10-13T04:13:23.283Z,97.20
2022-10-13T04:14:23.264Z,97.20
2022-10-13T04:15:23.263Z,97.20
2022-10-13T04:16:23.248Z,97.20
2022-10-13T04:17:23.237Z,97.40
2022-10-13T04:18:23.214Z,97.46
2022-10-13T04:19:23.224Z,97.40
2022-10-13T04:20:23.209Z,97.30
2022-10-13T04:21:23.186Z,97.20
2022-10-13T04:22:23.352Z,97.20
2022-10-13T04:23:23.176Z,97.20
2022-10-13T04:24:23.160Z,97.30
2022-10-13T04:25:23.179Z,97.30
2022-10-13T04:26:23.136Z,97.40
2022-10-13T04:27:23.118Z,97.36
2022-10-13T04:28:23.134Z,97.15
2022-10-13T04:29:23.106Z,97.15
2022-10-13T04:30:23.098Z,97.05
2022-10-13T04:31:23.078Z,97.05
2022-10-13T04:32:23.122Z,96.95
2022-10-13T04:33:23.056Z,96.84
2022-10-13T04:34:23.040Z,96.84
2022-10-13T04:35:23.048Z,96.95
2022-10-13T04:36:23.020Z,96.95
2022-10-13T04:37:23.013Z,96.84
2022-10-13T04:38:23.015Z,96.84
2022-10-13T04:39:22.992Z,96.84
2022-10-13T04:40:22.989Z,96.84
2022-10-13T04:41:22.972Z,96.74
2022-10-13T04:42:23.399Z,96.74
2022-10-13T04:43:22.950Z,96.74
2022-10-13T04:44:22.934Z,96.64
2022-10-13T04:45:22.934Z,96.64
2022-10-13T04:46:22.922Z,96.54
2022-10-13T04:47:22.931Z,96.44
2022-10-13T04:48:23.023Z,96.44
2022-10-13T04:49:22.883Z,96.33
2022-10-13T04:50:22.907Z,96.44
2022-10-13T04:51:22.860Z,96.33
2022-10-13T04:52:22.938Z,96.33
2022-10-13T04:53:22.844Z,96.23
2022-10-13T04:54:22.831Z,96.44
2022-10-13T04:55:22.832Z,96.44
2022-10-13T04:56:23.025Z,96.33
2022-10-13T04:57:22.804Z,96.29
2022-10-13T04:58:22.803Z,96.29
2022-10-13T04:59:22.792Z,96.19
2022-10-13T05:00:22.821Z,96.08
2022-10-13T05:01:22.772Z,96.08
2022-10-13T05:02:22.861Z,96.08
2022-10-13T05:03:22.752Z,95.98
2022-10-13T05:04:22.930Z,95.88
2022-10-13T05:05:22.724Z,95.88
2022-10-13T05:06:22.694Z,95.78
2022-10-13T05:07:22.695Z,95.78
2022-10-13T05:08:22.675Z,95.88
2022-10-13T05:09:22.666Z,95.88
2022-10-13T05:10:22.665Z,95.67
2022-10-13T05:11:22.644Z,95.57
2022-10-13T05:12:22.981Z,95.26
2022-10-13T05:13:22.625Z,95.26
2022-10-13T05:14:22.616Z,95.06
2022-10-13T05:15:22.606Z,95.02
2022-10-13T05:16:22.586Z,95.02
2022-10-13T05:17:22.576Z,94.92
2022-10-13T05:18:22.566Z,94.92
2022-10-13T05:19:22.561Z,95.12
2022-10-13T05:20:22.571Z,95.22
2022-10-13T05:21:22.539Z,95.32
2022-10-13T05:22:22.778Z,95.32
2022-10-13T05:23:22.516Z,95.47
2022-10-13T05:24:22.497Z,95.47
2022-10-13T05:25:22.507Z,95.26
2022-10-13T05:26:22.477Z,95.26
2022-10-13T05:27:22.468Z,95.17
2022-10-13T05:28:22.527Z,95.06
2022-10-13T05:29:22.449Z,94.96
2022-10-13T05:30:22.439Z,95.06
2022-10-13T05:31:22.430Z,95.17
2022-10-13T05:32:22.717Z,95.26
2022-10-13T05:33:22.415Z,95.37
2022-10-13T05:34:22.399Z,95.37
2022-10-13T05:35:22.479Z,95.26
2022-10-13T05:36:22.395Z,95.26
2022-10-13T05:37:22.359Z,95.37
2022-10-13T05:38:25.889Z,95.26
2022-10-13T05:39:22.347Z,95.26
2022-10-13T05:40:22.332Z,95.26
2022-10-13T05:41:22.331Z,95.17
2022-10-13T05:42:22.676Z,95.26
2022-10-13T05:43:22.300Z,95.37
2022-10-13T05:44:22.280Z,95.67
2022-10-13T05:45:22.272Z,95.67
2022-10-13T05:46:22.472Z,95.67
2022-10-13T05:47:22.253Z,95.57
2022-10-13T05:48:22.234Z,95.57
2022-10-13T05:49:22.231Z,95.47
2022-10-13T05:50:22.212Z,95.37
2022-10-13T05:51:22.212Z,95.37
2022-10-13T05:52:22.466Z,95.47
2022-10-13T05:53:22.192Z,95.57
2022-10-13T05:54:22.171Z,95.47
2022-10-13T05:55:22.163Z,95.37
2022-10-13T05:56:22.243Z,95.47
2022-10-13T05:57:22.133Z,95.37
2022-10-13T05:58:22.125Z,95.26
2022-10-13T05:59:26.763Z,95.26
2022-10-13T06:00:23.095Z,95.26
2022-10-13T06:01:22.105Z,95.47
2022-10-13T06:02:22.316Z,95.47
2022-10-13T06:03:22.066Z,95.37
2022-10-13T06:04:22.055Z,95.37
2022-10-13T06:05:22.054Z,95.57
2022-10-13T06:06:22.049Z,95.67
2022-10-13T06:07:22.036Z,95.78
2022-10-13T06:08:22.015Z,95.98
2022-10-13T06:09:22.008Z,95.98
2022-10-13T06:10:22.007Z,96.19
2022-10-13T06:11:22.004Z,96.19
2022-10-13T06:12:22.350Z,96.39
2022-10-13T06:13:21.967Z,96.29
2022-10-13T06:14:21.948Z,96.39
2022-10-13T06:15:27.066Z,96.39
2022-10-13T06:16:22.927Z,96.39
2022-10-13T06:17:21.918Z,96.29
2022-10-13T06:18:21.911Z,96.29
2022-10-13T06:19:21.926Z,96.19
2022-10-13T06:20:21.914Z,96.19
2022-10-13T06:21:21.871Z,96.08
2022-10-13T06:22:22.563Z,96.19
2022-10-13T06:23:21.859Z,96.19
2022-10-13T06:24:21.828Z,96.19
2022-10-13T06:25:21.871Z,96.08
2022-10-13T06:26:21.845Z,96.08
2022-10-13T06:27:21.800Z,96.08
2022-10-13T06:28:21.811Z,96.19
2022-10-13T06:29:21.780Z,96.29
2022-10-13T06:30:21.771Z,96.19
2022-10-13T06:31:21.770Z,96.29
2022-10-13T06:32:22.367Z,96.29
2022-10-13T06:33:21.742Z,96.39
2022-10-13T06:34:21.740Z,96.39
2022-10-13T06:35:21.716Z,96.39
2022-10-13T06:36:21.721Z,96.29
2022-10-13T06:37:26.940Z,96.49
2022-10-13T06:38:22.691Z,96.49
2022-10-13T06:39:21.671Z,96.39
2022-10-13T06:40:21.663Z,96.39
2022-10-13T06:41:21.664Z,96.29
2022-10-13T06:42:22.056Z,96.25
2022-10-13T06:43:21.635Z,96.14
2022-10-13T06:44:21.626Z,95.94
2022-10-13T06:45:21.612Z,95.94
2022-10-13T06:46:21.768Z,95.84
2022-10-13T06:47:21.594Z,95.63
2022-10-13T06:48:21.573Z,95.53
2022-10-13T06:49:21.573Z,95.43
2022-10-13T06:50:21.544Z,95.32
2022-10-13T06:51:21.571Z,95.22
2022-10-13T06:52:21.732Z,95.32
2022-10-13T06:53:21.506Z,95.43
2022-10-13T06:54:21.493Z,95.32
2022-10-13T06:55:21.498Z,95.32
2022-10-13T06:56:21.514Z,95.32
2022-10-13T06:57:21.465Z,95.32
2022-10-13T06:58:21.471Z,95.53
2022-10-13T06:59:21.450Z,95.43
2022-10-13T07:00:21.469Z,95.48
2022-10-13T07:01:21.465Z,95.18
2022-10-13T07:02:21.880Z,95.38
2022-10-13T07:03:21.398Z,95.38
2022-10-13T07:04:21.401Z,95.38
2022-10-13T07:05:21.376Z,95.28
2022-10-13T07:06:21.386Z,95.28
2022-10-13T07:07:21.356Z,95.28
2022-10-13T07:08:21.358Z,95.28
2022-10-13T07:09:21.341Z,95.18
2022-10-13T07:10:21.319Z,95.18
2022-10-13T07:11:21.319Z,95.07
2022-10-13T07:12:21.665Z,95.07
2022-10-13T07:14:21.279Z,95.07
2022-10-13T07:15:21.268Z,95.07
2022-10-13T07:16:21.279Z,94.97
2022-10-13T07:17:21.727Z,95.07
2022-10-13T07:18:21.243Z,95.07
2022-10-13T07:19:21.229Z,95.18
2022-10-13T07:20:21.250Z,95.28
2022-10-13T07:21:21.221Z,95.28
2022-10-13T07:22:21.219Z,95.38
2022-10-13T07:23:21.180Z,95.48
2022-10-13T07:24:21.170Z,95.48
2022-10-13T07:25:21.255Z,95.38
2022-10-13T07:26:21.170Z,95.38
2022-10-13T07:27:21.453Z,95.38
2022-10-13T07:28:21.176Z,95.38
2022-10-13T07:29:21.113Z,95.28
2022-10-13T07:30:21.196Z,95.28
2022-10-13T07:31:21.117Z,95.18
2022-10-13T07:32:21.210Z,95.18
2022-10-13T07:33:21.278Z,95.18
2022-10-13T07:34:21.073Z,95.18
2022-10-13T07:35:21.053Z,95.03
2022-10-13T07:36:21.073Z,95.03
2022-10-13T07:37:21.431Z,94.82
2022-10-13T07:38:21.025Z,94.93
2022-10-13T07:39:21.003Z,94.93
2022-10-13T07:40:21.088Z,95.03
2022-10-13T07:41:21.044Z,94.82
2022-10-13T07:42:20.974Z,94.82
2022-10-13T07:43:21.695Z,94.82
2022-10-13T07:44:21.009Z,94.62
2022-10-13T07:45:20.949Z,94.68
2022-10-13T07:46:20.964Z,94.27
2022-10-13T07:47:21.266Z,94.17
2022-10-13T07:48:23.890Z,94.17
2022-10-13T07:49:20.895Z,93.96
2022-10-13T07:50:20.915Z,93.96
2022-10-13T07:51:20.887Z,93.96
2022-10-13T07:52:21.267Z,93.76
2022-10-13T07:53:20.854Z,93.76
2022-10-13T07:54:23.762Z,93.76
2022-10-13T07:55:20.829Z,93.66
2022-10-13T07:56:20.828Z,93.76
2022-10-13T07:57:20.820Z,93.55
2022-10-13T07:58:20.798Z,93.51
2022-10-13T07:59:20.789Z,93.51
2022-10-13T08:00:20.869Z,93.41
2022-10-13T08:01:20.826Z,93.31
2022-10-13T08:02:21.173Z,93.31
2022-10-13T08:03:20.773Z,93.31
2022-10-13T08:04:20.734Z,93.41
2022-10-13T08:05:20.762Z,93.00
2022-10-13T08:06:20.778Z,93.00
2022-10-13T08:07:21.097Z,92.76
2022-10-13T08:08:20.731Z,92.65
2022-10-13T08:09:20.710Z,92.65
2022-10-13T08:10:20.671Z,92.76
2022-10-13T08:11:20.733Z,92.76
2022-10-13T08:12:20.974Z,92.65
2022-10-13T08:13:20.650Z,92.86
2022-10-13T08:14:20.620Z,92.76
2022-10-13T08:15:20.635Z,92.96
2022-10-13T08:16:20.602Z,92.76
2022-10-13T08:17:20.871Z,92.61
2022-10-13T08:18:20.574Z,92.30
2022-10-13T08:19:20.565Z,92.50
2022-10-13T08:20:20.566Z,92.30
2022-10-13T08:22:24.746Z,92.41
2022-10-13T08:23:21.525Z,92.41
2022-10-13T08:24:20.508Z,92.20
2022-10-13T08:25:20.505Z,92.10
2022-10-13T08:26:20.506Z,91.89
2022-10-13T08:27:20.773Z,91.65
2022-10-13T08:28:20.485Z,91.85
2022-10-13T08:29:22.585Z,91.55
2022-10-13T08:30:20.673Z,91.14
2022-10-13T08:31:20.627Z,90.94
2022-10-13T08:32:21.016Z,90.99
2022-10-13T08:33:20.417Z,90.48
2022-10-13T08:34:20.408Z,90.28
2022-10-13T08:35:20.388Z,89.97
2022-10-13T08:36:20.377Z,89.97
2022-10-13T08:37:20.379Z,89.94
2022-10-13T08:38:20.379Z,90.24
2022-10-13T08:39:20.351Z,89.94
2022-10-13T08:40:20.343Z,89.89
2022-10-13T08:41:20.334Z,89.07
2022-10-13T08:42:20.724Z,89.18
2022-10-13T08:43:20.301Z,89.38
2022-10-13T08:45:40.473Z,88.53
2022-10-13T08:46:21.279Z,88.32
2022-10-13T08:47:20.262Z,87.71
2022-10-13T08:48:20.241Z,87.92
2022-10-13T08:49:20.340Z,88.53
2022-10-13T08:50:20.264Z,88.08
2022-10-13T08:51:20.225Z,87.67
2022-10-13T08:52:20.524Z,87.77
2022-10-13T08:53:20.439Z,87.57
2022-10-13T08:54:20.193Z,87.47
2022-10-13T08:55:20.176Z,87.67
2022-10-13T08:56:20.164Z,87.67
2022-10-13T08:57:20.321Z,87.47
2022-10-13T08:58:20.136Z,87.87
2022-10-13T08:59:20.126Z,87.77
2022-10-13T09:00:20.113Z,87.67
2022-10-13T09:01:20.132Z,88.18
2022-10-13T09:02:20.096Z,87.87
2022-10-13T09:03:20.082Z,87.77
2022-10-13T09:04:20.069Z,87.67
2022-10-13T09:05:20.059Z,87.67
2022-10-13T09:06:20.062Z,87.87
2022-10-13T09:07:20.229Z,88.08
2022-10-13T09:08:20.031Z,88.18
2022-10-13T09:09:20.011Z,88.54
2022-10-13T09:10:20.129Z,88.75
2022-10-13T09:11:20.006Z,88.65
2022-10-13T09:12:20.291Z,88.54
2022-10-13T09:13:19.959Z,88.34
2022-10-13T09:14:19.951Z,88.24
2022-10-13T09:15:19.949Z,87.84
2022-10-13T09:16:19.941Z,87.12
2022-10-13T09:17:19.927Z,87.63
2022-10-13T09:18:19.901Z,88.24
2022-10-13T09:19:19.901Z,87.63
2022-10-13T09:20:19.910Z,88.04
2022-10-13T09:21:19.892Z,87.53
2022-10-13T09:22:20.077Z,87.32
2022-10-13T09:23:19.865Z,87.23
2022-10-13T09:24:19.842Z,87.63
2022-10-13T09:25:19.835Z,87.32
2022-10-13T09:26:19.835Z,87.53
2022-10-13T09:27:19.824Z,87.59
2022-10-13T09:28:19.869Z,86.77
2022-10-13T09:29:19.786Z,87.18
2022-10-13T09:30:19.767Z,87.29
2022-10-13T09:31:19.776Z,86.98
2022-10-13T09:32:20.092Z,87.18
2022-10-13T09:33:19.736Z,86.88
2022-10-13T09:34:19.727Z,86.98
2022-10-13T09:35:19.716Z,86.77
2022-10-13T09:36:19.868Z,87.29
2022-10-13T09:37:19.697Z,87.04
2022-10-13T09:38:19.796Z,86.43
2022-10-13T09:39:19.672Z,86.74
2022-10-13T09:40:19.669Z,86.43
2022-10-13T09:41:19.679Z,86.94
2022-10-13T09:42:19.860Z,86.22
2022-10-13T09:43:19.631Z,86.33
2022-10-13T09:44:20.091Z,86.39
2022-10-13T09:45:19.607Z,86.90
2022-10-13T09:46:19.691Z,86.80
2022-10-13T09:47:19.580Z,87.10
2022-10-13T09:48:19.588Z,86.59
2022-10-13T09:49:19.561Z,86.69
2022-10-13T09:50:19.572Z,86.29
2022-10-13T09:51:19.558Z,85.74
2022-10-13T09:52:19.862Z,85.64
2022-10-13T09:53:19.512Z,85.84
2022-10-13T09:54:19.504Z,85.53
2022-10-13T09:55:19.502Z,85.94
2022-10-13T09:56:19.645Z,86.10
2022-10-13T09:57:19.474Z,85.80
2022-10-13T09:58:19.464Z,85.30
2022-10-13T09:59:19.463Z,84.99
2022-10-13T10:00:19.435Z,85.60
2022-10-13T10:01:19.434Z,85.09
2022-10-13T10:02:21.303Z,84.48
2022-10-13T10:03:19.417Z,84.24
2022-10-13T10:04:19.527Z,84.24
2022-10-13T10:05:19.385Z,84.24
2022-10-13T10:06:20.006Z,83.94
2022-10-13T10:07:19.512Z,83.43
2022-10-13T10:08:20.547Z,84.14
2022-10-13T10:09:19.338Z,84.00
2022-10-13T10:10:19.341Z,83.80
2022-10-13T10:11:19.319Z,83.39
2022-10-13T10:12:21.855Z,84.00
2022-10-13T10:13:19.289Z,84.10
2022-10-13T10:14:19.310Z,82.98
2022-10-13T10:15:19.288Z,82.34
2022-10-13T10:16:19.272Z,83.35
2022-10-13T10:17:19.424Z,82.64
2022-10-13T10:18:19.242Z,83.04
2022-10-13T10:19:19.231Z,81.93
2022-10-13T10:20:19.241Z,81.79
2022-10-13T10:21:19.222Z,81.39
2022-10-13T10:22:19.215Z,81.29
2022-10-13T10:23:19.206Z,81.09
2022-10-13T10:24:19.183Z,80.47
2022-10-13T10:25:19.183Z,80.58
2022-10-13T10:26:23.514Z,80.84
2022-10-13T10:28:19.183Z,82.26
2022-10-13T10:29:19.137Z,82.90
2022-10-13T10:30:19.131Z,82.40
2022-10-13T10:31:19.139Z,81.79
2022-10-13T10:32:19.347Z,82.06
2022-10-13T10:33:19.085Z,82.56
2022-10-13T10:34:19.081Z,83.58
2022-10-13T10:35:19.076Z,81.65
2022-10-13T10:36:19.070Z,81.85
2022-10-13T10:37:21.346Z,82.46
2022-10-13T10:38:20.031Z,82.32
2022-10-13T10:39:19.016Z,81.51
2022-10-13T10:40:19.021Z,80.40
2022-10-13T10:41:18.997Z,81.71
2022-10-13T10:42:19.314Z,81.41
2022-10-13T10:43:18.971Z,81.31
2022-10-13T10:44:19.000Z,80.91
2022-10-13T10:45:18.951Z,81.27
2022-10-13T10:46:18.954Z,81.57
2022-10-13T10:47:22.483Z,81.37
2022-10-13T10:48:18.932Z,80.46
2022-10-13T10:49:18.902Z,78.75
2022-10-13T10:50:18.922Z,78.30
2022-10-13T10:51:18.881Z,78.10
2022-10-13T10:52:18.884Z,80.12
2022-10-13T10:53:18.864Z,80.29
2022-10-13T10:54:18.858Z,80.43
2022-10-13T10:55:18.865Z,80.59
2022-10-13T10:56:18.834Z,79.99
2022-10-13T10:57:19.085Z,78.37
2022-10-13T10:58:18.816Z,78.61
2022-10-13T10:59:18.798Z,79.82
2022-10-13T11:00:18.818Z,78.71
2022-10-13T11:01:18.849Z,78.91
2022-10-13T11:02:19.097Z,79.41
2022-10-13T11:03:18.749Z,79.62
2022-10-13T11:04:18.746Z,79.08
2022-10-13T11:05:18.731Z,79.79
2022-10-13T11:06:18.737Z,77.46
2022-10-13T11:07:18.939Z,75.91
2022-10-13T11:08:18.703Z,76.01
2022-10-13T11:09:18.682Z,75.40
2022-10-13T11:10:18.690Z,75.20
2022-10-13T11:11:21.885Z,74.29
2022-10-13T11:12:20.092Z,76.01
2022-10-13T11:13:18.644Z,74.40
2022-10-13T11:14:18.637Z,74.19
2022-10-13T11:15:18.634Z,73.49
2022-10-13T11:16:18.681Z,74.40
2022-10-13T11:17:18.698Z,74.90
2022-10-13T11:18:21.960Z,73.89
2022-10-13T11:19:18.575Z,73.89
2022-10-13T11:20:18.580Z,74.29
2022-10-13T11:21:18.565Z,75.10
2022-10-13T11:22:18.973Z,74.19
2022-10-13T11:23:18.580Z,74.29
2022-10-13T11:24:18.546Z,74.36
2022-10-13T11:25:18.537Z,74.16
2022-10-13T11:26:18.520Z,74.66
2022-10-13T11:27:18.486Z,76.88
2022-10-13T11:28:18.521Z,74.73
2022-10-13T11:29:18.481Z,74.63
2022-10-13T11:30:18.472Z,73.58
2022-10-13T11:31:18.460Z,72.78
2022-10-13T11:32:18.843Z,73.18
2022-10-13T11:33:18.432Z,71.97
2022-10-13T11:34:18.423Z,71.77
2022-10-13T11:35:18.402Z,72.14
2022-10-13T11:36:18.401Z,74.35
2022-10-13T11:37:18.387Z,72.44
2022-10-13T11:38:18.371Z,73.35
2022-10-13T11:39:18.426Z,73.65
2022-10-13T11:40:18.355Z,72.64
2022-10-13T11:41:18.352Z,72.54
2022-10-13T11:42:18.500Z,71.13
2022-10-13T11:43:18.317Z,72.94
2022-10-13T11:44:18.310Z,72.04
2022-10-13T11:45:18.286Z,73.28
2022-10-13T11:46:18.296Z,72.78
2022-10-13T11:47:18.570Z,73.18
2022-10-13T11:48:18.258Z,73.79
2022-10-13T11:49:18.256Z,72.67
2022-10-13T11:50:18.248Z,72.58
2022-10-13T11:51:18.237Z,70.56
2022-10-13T11:52:18.649Z,70.69
2022-10-13T11:53:18.198Z,70.49
2022-10-13T11:54:18.212Z,72.51
2022-10-13T11:55:18.183Z,70.49
2022-10-13T11:56:18.195Z,71.30
2022-10-13T11:57:18.150Z,71.23
2022-10-13T11:58:18.160Z,72.24
2022-10-13T11:59:18.139Z,70.32
2022-10-13T12:00:18.133Z,70.22
2022-10-13T12:01:18.132Z,70.83
2022-10-13T12:02:19.237Z,71.23
2022-10-13T12:03:18.162Z,71.17
2022-10-13T12:04:18.083Z,72.27
2022-10-13T12:05:18.076Z,73.99
2022-10-13T12:06:18.073Z,76.62
2022-10-13T12:07:18.064Z,77.02
2022-10-13T12:08:18.034Z,76.01
2022-10-13T12:09:18.040Z,77.73
2022-10-13T12:10:18.085Z,78.63
2022-10-13T12:11:18.024Z,78.74
2022-10-13T12:12:18.419Z,79.74
2022-10-13T12:13:17.986Z,80.76
2022-10-13T12:14:17.976Z,80.35
2022-10-13T12:15:17.965Z,79.85
2022-10-13T12:16:17.970Z,78.53
2022-10-13T12:17:23.142Z,79.85
2022-10-13T12:18:18.928Z,78.43
2022-10-13T12:19:17.919Z,78.67
2022-10-13T12:20:17.973Z,79.79
2022-10-13T12:21:17.908Z,79.28
2022-10-13T12:22:17.887Z,79.79
2022-10-13T12:23:17.968Z,79.99
2022-10-13T12:24:17.864Z,79.17
2022-10-13T12:25:17.859Z,78.17
2022-10-13T12:26:17.850Z,77.86
2022-10-13T12:27:18.262Z,79.17
2022-10-13T12:28:17.835Z,76.75
2022-10-13T12:29:17.803Z,76.59
2022-10-13T12:30:17.793Z,75.27
2022-10-13T12:31:17.801Z,76.99
2022-10-13T12:32:17.802Z,77.19
2022-10-13T12:33:17.761Z,78.71
2022-10-13T12:34:17.790Z,78.50
2022-10-13T12:35:17.743Z,77.29
2022-10-13T12:36:17.759Z,76.99
2022-10-13T12:37:18.037Z,77.50
2022-10-13T12:38:17.714Z,78.00
2022-10-13T12:39:17.685Z,80.32
2022-10-13T12:40:17.695Z,80.36
2022-10-13T12:41:17.695Z,79.55
2022-10-13T12:42:17.717Z,79.05
2022-10-13T12:43:17.655Z,79.66
2022-10-13T12:44:17.635Z,79.25
2022-10-13T12:45:17.631Z,79.55
2022-10-13T12:46:17.658Z,80.36
2022-10-13T12:47:17.782Z,79.66
2022-10-13T12:48:17.587Z,80.46
2022-10-13T12:49:17.634Z,81.98
2022-10-13T12:50:17.577Z,81.31
2022-10-13T12:51:17.568Z,82.12
2022-10-13T12:52:17.823Z,81.62
2022-10-13T12:53:17.538Z,81.51
2022-10-13T12:54:17.530Z,81.51
2022-10-13T12:55:17.535Z,82.02
2022-10-13T12:56:17.523Z,81.82